Time,TemperatureF,DewpointF,PressureIn,WindDirection,WindDirectionDegrees,WindSpeedMPH,WindSpeedGustMPH,Humidity,HourlyPrecipIn,Conditions,Clouds,dailyrainin,SoftwareType,DateUTC
2013-07-14 00:00:00,72.8,64.8,29.98,SE,127,0.0,2.0,76,0.00,CLR,SKC,0.00,WeatherDisplay:10.37,2013-07-13 22:00:00,
2013-07-14 00:10:00,72.6,64.2,29.98,SE,128,0.0,4.0,75,0.00,CLR,SKC,0.00,WeatherDisplay:10.37,2013-07-13 22:10:00,
2013-07-14 00:20:00,72.5,63.7,29.99,SE,128,0.0,3.0,74,0.00,CLR,SKC,0.00,WeatherDisplay:10.37,2013-07-13 22:20:00,
2013-07-14 00:30:00,72.5,63.7,29.99,SE,128,0.0,3.0,74,0.00,CLR,SKC,0.00,WeatherDisplay:10.37,2013-07-13 22:30:00,
2013-07-14 00:40:00,72.9,64.5,29.98,SE,128,0.0,0.0,75,0.00,CLR,SKC,0.00,WeatherDisplay:10.37,2013-07-13 22:40:00,
2013-07-14 00:50:00,72.8,64.1,29.98,SE,128,0.0,3.0,74,0.00,CLR,SKC,0.00,WeatherDisplay:10.37,2013-07-13 22:50:00,
2013-07-14 01:00:00,72.7,63.9,29.98,SE,128,0.0,3.0,74,0.00,CLR,SKC,0.00,WeatherDisplay:10.37,2013-07-13 23:00:00,
2013-07-14 01:10:00,72.7,63.9,29.98,SE,128,0.0,0.0,74,0.00,CLR,SKC,0.00,WeatherDisplay:10.37,2013-07-13 23:10:00,
2013-07-14 01:20:00,72.6,63.8,29.98,SE,128,0.0,2.0,74,0.00,CLR,SKC,0.00,WeatherDisplay:10.37,2013-07-13 23:20:00,
2013-07-14 01:30:00,72.5,63.7,29.98,SE,128,0.0,2.0,74,0.00,CLR,SKC,0.00,WeatherDisplay:10.37,2013-07-13 23:30:00,
2013-07-14 01:40:00,72.5,63.7,29.98,SE,128,0.0,0.0,74,0.00,CLR,SKC,0.00,WeatherDisplay:10.37,2013-07-13 23:40:00,
2013-07-14 01:50:00,72.6,63.4,29.98,SE,128,0.0,1.0,73,0.00,CLR,SKC,0.00,WeatherDisplay:10.37,2013-07-13 23:50:00,
2013-07-14 01:59:00,72.6,63.5,29.98,SE,128,0.0,2.0,73,0.00,CLR,SKC,0.00,WeatherDisplay:10.37,2013-07-13 23:59:00,
2013-07-14 02:10:00,72.7,63.9,29.97,SE,128,0.0,0.0,74,0.00,CLR,SKC,0.00,WeatherDisplay:10.37,2013-07-14 00:10:00,
2013-07-14 02:20:00,72.8,64.1,29.97,SE,128,0.0,0.0,74,0.00,CLR,SKC,0.00,WeatherDisplay:10.37,2013-07-14 00:20:00,
2013-07-14 02:30:00,72.9,64.6,29.96,SE,128,0.0,0.0,75,0.00,CLR,SKC,0.00,WeatherDisplay:10.37,2013-07-14 00:30:00,
2013-07-14 02:40:00,73.1,65.1,29.97,SE,128,0.0,0.0,76,0.00,CLR,SKC,0.00,WeatherDisplay:10.37,2013-07-14 00:40:00,
2013-07-14 02:50:00,74.0,66.3,29.97,SE,128,0.0,2.0,77,0.00,CLR,SKC,0.00,WeatherDisplay:10.37,2013-07-14 00:50:00,
2013-07-14 03:00:00,74.5,67.2,29.97,SE,128,0.0,0.0,78,0.00,CLR,SKC,0.00,WeatherDisplay:10.37,2013-07-14 01:00:00,
2013-07-14 03:10:00,74.5,67.2,29.97,SE,128,0.0,0.0,78,0.00,CLR,SKC,0.00,WeatherDisplay:10.37,2013-07-14 01:10:00,
2013-07-14 03:20:00,74.4,67.1,29.97,SE,128,0.0,0.0,78,0.00,CLR,SKC,0.00,WeatherDisplay:10.37,2013-07-14 01:20:00,
2013-07-14 03:30:00,73.8,66.5,29.97,SE,128,0.0,2.0,78,0.00,CLR,SKC,0.00,WeatherDisplay:10.37,2013-07-14 01:30:00,
2013-07-14 03:40:00,73.2,65.6,29.97,SE,128,0.0,2.0,77,0.00,CLR,SKC,0.00,WeatherDisplay:10.37,2013-07-14 01:40:00,
2013-07-14 03:50:00,73.3,66.4,29.97,SE,128,0.0,0.0,79,0.00,CLR,SKC,0.00,WeatherDisplay:10.37,2013-07-14 01:50:00,
2013-07-14 04:00:00,73.5,66.9,29.97,SE,128,0.0,0.0,80,0.00,CLR,SKC,0.00,WeatherDisplay:10.37,2013-07-14 02:00:00,
2013-07-14 04:10:00,73.6,67.0,29.97,SE,128,0.0,0.0,80,0.00,CLR,SKC,0.00,WeatherDisplay:10.37,2013-07-14 02:10:00,
2013-07-14 04:20:00,73.7,67.5,29.97,SE,128,0.0,0.0,81,0.00,CLR,SKC,0.00,WeatherDisplay:10.37,2013-07-14 02:20:00,
2013-07-14 04:30:00,73.8,68.3,29.98,SE,128,0.0,0.0,83,0.00,CLR,SKC,0.00,WeatherDisplay:10.37,2013-07-14 02:30:00,
2013-07-14 04:40:00,73.6,68.1,29.98,SE,128,0.0,2.0,83,0.00,CLR,SKC,0.00,WeatherDisplay:10.37,2013-07-14 02:40:00,
2013-07-14 04:50:00,73.4,67.9,29.97,SE,128,0.0,2.0,83,0.00,CLR,SKC,0.00,WeatherDisplay:10.37,2013-07-14 02:50:00,
2013-07-14 05:00:00,73.4,68.3,29.98,SE,128,0.0,0.0,84,0.00,CLR,SKC,0.00,WeatherDisplay:10.37,2013-07-14 03:00:00,
2013-07-14 05:10:00,73.3,68.2,29.97,SE,128,0.0,0.0,84,0.00,CLR,SKC,0.00,WeatherDisplay:10.37,2013-07-14 03:10:00,
2013-07-14 05:20:00,73.2,68.1,29.97,SE,128,0.0,0.0,84,0.00,CLR,SKC,0.00,WeatherDisplay:10.37,2013-07-14 03:20:00,
2013-07-14 05:30:00,72.9,67.8,29.97,SE,128,1.0,3.0,84,0.00,CLR,SKC,0.00,WeatherDisplay:10.37,2013-07-14 03:30:00,
2013-07-14 05:40:00,72.7,67.6,29.98,SE,128,0.0,3.0,84,0.00,CLR,SKC,0.00,WeatherDisplay:10.37,2013-07-14 03:40:00,
2013-07-14 05:50:00,72.7,67.6,29.98,SE,128,0.0,0.0,84,0.00,CLR,SKC,0.00,WeatherDisplay:10.37,2013-07-14 03:50:00,
2013-07-14 06:00:00,72.9,68.1,29.97,SE,128,0.0,0.0,85,0.00,CLR,SKC,0.00,WeatherDisplay:10.37,2013-07-14 04:00:00,
2013-07-14 06:10:00,72.5,67.4,29.97,SE,128,0.0,0.0,84,0.00,CLR,SKC,0.00,WeatherDisplay:10.37,2013-07-14 04:10:00,
2013-07-14 06:20:00,72.6,67.8,29.97,SE,128,0.0,0.0,85,0.00,CLR,SKC,0.00,WeatherDisplay:10.37,2013-07-14 04:20:00,
2013-07-14 06:30:00,72.9,68.4,29.98,SE,128,0.0,0.0,86,0.00,CLR,SKC,0.00,WeatherDisplay:10.37,2013-07-14 04:30:00,
2013-07-14 06:40:00,73.3,68.5,29.98,SE,128,0.0,0.0,85,0.00,CLR,SKC,0.00,WeatherDisplay:10.37,2013-07-14 04:40:00,
2013-07-14 06:50:00,73.5,68.7,29.98,SE,128,0.0,0.0,85,0.00,CLR,SKC,0.00,WeatherDisplay:10.37,2013-07-14 04:50:00,
2013-07-14 07:00:00,73.4,68.3,29.97,SE,128,0.0,0.0,84,0.00,CLR,SKC,0.00,WeatherDisplay:10.37,2013-07-14 05:00:00,
2013-07-14 07:10:00,73.3,68.2,29.98,SE,128,0.0,0.0,84,0.00,CLR,SKC,0.00,WeatherDisplay:10.37,2013-07-14 05:10:00,
2013-07-14 07:20:00,73.4,68.2,29.97,SE,128,0.0,1.0,84,0.00,CLR,SKC,0.00,WeatherDisplay:10.37,2013-07-14 05:20:00,
2013-07-14 07:30:00,73.7,68.9,29.97,SE,128,0.0,0.0,85,0.00,CLR,SKC,0.00,WeatherDisplay:10.37,2013-07-14 05:30:00,
2013-07-14 07:40:00,74.2,69.7,29.97,SE,128,0.0,0.0,86,0.00,CLR,SKC,0.00,WeatherDisplay:10.37,2013-07-14 05:40:00,
2013-07-14 07:50:00,75.0,70.9,29.97,SE,128,0.0,1.0,87,0.00,CLR,SKC,0.00,WeatherDisplay:10.37,2013-07-14 05:50:00,
2013-07-14 08:00:00,75.2,71.1,29.97,SE,128,0.0,3.0,87,0.00,CLR,SKC,0.00,WeatherDisplay:10.37,2013-07-14 06:00:00,
2013-07-14 08:10:00,75.3,70.5,29.97,SE,130,2.0,5.0,85,0.00,CLR,SKC,0.00,WeatherDisplay:10.37,2013-07-14 06:10:00,
2013-07-14 08:20:00,75.4,70.6,29.97,NW,311,2.0,5.0,85,0.00,CLR,SKC,0.00,WeatherDisplay:10.37,2013-07-14 06:20:00,
2013-07-14 08:30:00,75.9,70.7,29.97,NW,310,2.0,5.0,84,0.00,CLR,SKC,0.00,WeatherDisplay:10.37,2013-07-14 06:30:00,
2013-07-14 08:40:00,76.2,71.0,29.97,NW,306,1.0,5.0,84,0.00,CLR,SKC,0.00,WeatherDisplay:10.37,2013-07-14 06:40:00,
2013-07-14 08:50:00,76.0,70.1,29.97,WNW,294,2.0,5.0,82,0.00,CLR,SKC,0.00,WeatherDisplay:10.37,2013-07-14 06:50:00,
2013-07-14 09:00:00,76.1,70.2,29.96,WNW,296,0.0,4.0,82,0.00,CLR,SKC,0.00,WeatherDisplay:10.37,2013-07-14 07:00:00,
2013-07-14 09:10:00,76.3,70.0,29.96,WNW,288,2.0,5.0,81,0.00,CLR,SKC,0.00,WeatherDisplay:10.37,2013-07-14 07:10:00,
2013-07-14 09:20:00,76.2,70.3,29.96,NW,310,0.0,4.0,82,0.00,CLR,SKC,0.00,WeatherDisplay:10.37,2013-07-14 07:20:00,
2013-07-14 09:30:00,76.2,69.9,29.96,WNW,297,3.0,6.0,81,0.00,CLR,SKC,0.00,WeatherDisplay:10.37,2013-07-14 07:30:00,
2013-07-14 09:40:00,76.0,70.1,29.96,WNW,301,3.0,6.0,82,0.00,CLR,SKC,0.00,WeatherDisplay:10.37,2013-07-14 07:40:00,
2013-07-14 09:50:00,76.5,70.6,29.97,WNW,298,3.0,6.0,82,0.00,CLR,SKC,0.00,WeatherDisplay:10.37,2013-07-14 07:50:00,
2013-07-14 10:00:00,76.7,70.8,29.97,WNW,297,2.0,8.0,82,0.00,CLR,SKC,0.00,WeatherDisplay:10.37,2013-07-14 08:00:00,
2013-07-14 10:10:00,76.6,69.6,29.97,WNW,284,2.0,7.0,79,0.00,CLR,SKC,0.00,WeatherDisplay:10.37,2013-07-14 08:10:00,
2013-07-14 10:20:00,76.5,69.5,29.97,West,273,2.0,5.0,79,0.00,CLR,SKC,0.00,WeatherDisplay:10.37,2013-07-14 08:20:00,
2013-07-14 10:30:00,76.7,68.9,29.97,NNW,336,0.0,5.0,77,0.00,CLR,SKC,0.00,WeatherDisplay:10.37,2013-07-14 08:30:00,
2013-07-14 10:40:00,77.3,69.5,29.97,NW,321,1.0,4.0,77,0.00,CLR,SKC,0.00,WeatherDisplay:10.37,2013-07-14 08:40:00,
2013-07-14 10:50:00,77.6,69.0,29.97,West,271,1.0,3.0,75,0.00,CLR,SKC,0.00,WeatherDisplay:10.37,2013-07-14 08:50:00,
2013-07-14 11:00:00,77.6,69.1,29.97,NW,320,1.0,6.0,75,0.00,CLR,SKC,0.00,WeatherDisplay:10.37,2013-07-14 09:00:00,
2013-07-14 11:10:00,77.7,68.8,29.97,WNW,303,0.0,6.0,74,0.00,CLR,SKC,0.00,WeatherDisplay:10.37,2013-07-14 09:10:00,
2013-07-14 11:20:00,78.0,68.6,29.97,WNW,297,1.0,5.0,73,0.00,CLR,SKC,0.00,WeatherDisplay:10.37,2013-07-14 09:20:00,
2013-07-14 11:30:00,77.9,67.7,29.97,NW,307,2.0,6.0,71,0.00,CLR,SKC,0.00,WeatherDisplay:10.37,2013-07-14 09:30:00,
2013-07-14 11:40:00,77.9,68.1,29.97,NW,304,2.0,7.0,72,0.00,CLR,SKC,0.00,WeatherDisplay:10.37,2013-07-14 09:40:00,
2013-07-14 11:50:00,78.8,69.0,29.97,WNW,302,1.0,6.0,72,0.00,CLR,SKC,0.00,WeatherDisplay:10.37,2013-07-14 09:50:00,
2013-07-14 12:00:00,79.5,67.1,29.97,NNW,332,5.0,7.0,66,0.00,CLR,SKC,0.00,WeatherDisplay:10.37,2013-07-14 10:00:00,
2013-07-14 12:10:00,79.5,68.5,29.97,NW,319,5.0,7.0,69,0.00,CLR,SKC,0.00,WeatherDisplay:10.37,2013-07-14 10:10:00,
2013-07-14 12:20:00,79.7,68.6,29.97,NW,307,6.0,7.0,69,0.00,CLR,SKC,0.00,WeatherDisplay:10.37,2013-07-14 10:20:00,
2013-07-14 12:30:00,79.4,69.2,29.98,NW,312,7.0,9.0,71,0.00,CLR,SKC,0.00,WeatherDisplay:10.37,2013-07-14 10:30:00,
2013-07-14 12:40:00,79.3,67.4,29.98,WNW,292,7.0,14.0,67,0.00,CLR,SKC,0.00,WeatherDisplay:10.37,2013-07-14 10:40:00,
2013-07-14 12:50:00,79.4,65.7,29.98,NW,318,6.0,13.0,63,0.00,CLR,SKC,0.00,WeatherDisplay:10.37,2013-07-14 10:50:00,
2013-07-14 13:00:00,79.8,66.1,29.97,NW,315,5.0,10.0,63,0.00,CLR,SKC,0.00,WeatherDisplay:10.37,2013-07-14 11:00:00,
2013-07-14 13:10:00,80.0,64.3,29.97,NW,323,5.0,12.0,59,0.00,CLR,SKC,0.00,WeatherDisplay:10.37,2013-07-14 11:10:00,
2013-07-14 13:20:00,80.1,63.0,29.97,WNW,285,6.0,12.0,56,0.00,CLR,SKC,0.00,WeatherDisplay:10.37,2013-07-14 11:20:00,
2013-07-14 13:30:00,81.0,64.8,29.97,WNW,287,3.0,9.0,58,0.00,CLR,SKC,0.00,WeatherDisplay:10.37,2013-07-14 11:30:00,
2013-07-14 13:40:00,82.1,63.8,29.96,NW,308,3.0,8.0,54,0.00,CLR,SKC,0.00,WeatherDisplay:10.37,2013-07-14 11:40:00,
2013-07-14 13:50:00,82.1,64.3,29.96,WNW,300,5.0,8.0,55,0.00,CLR,SKC,0.00,WeatherDisplay:10.37,2013-07-14 11:50:00,
2013-07-14 14:00:00,80.8,68.0,29.97,WNW,285,8.0,12.0,65,0.00,CLR,SKC,0.00,WeatherDisplay:10.37,2013-07-14 12:00:00,
2013-07-14 14:10:00,80.3,69.6,29.96,NW,323,5.0,11.0,70,0.00,CLR,SKC,0.00,WeatherDisplay:10.37,2013-07-14 12:10:00,
2013-07-14 14:20:00,79.9,70.1,29.96,WNW,294,7.0,12.0,72,0.00,CLR,SKC,0.00,WeatherDisplay:10.37,2013-07-14 12:20:00,
2013-07-14 14:30:00,80.0,71.0,29.96,NW,314,6.0,12.0,74,0.00,CLR,SKC,0.00,WeatherDisplay:10.37,2013-07-14 12:30:00,
2013-07-14 14:40:00,79.9,70.9,29.97,NW,313,7.0,12.0,74,0.00,CLR,SKC,0.00,WeatherDisplay:10.37,2013-07-14 12:40:00,
2013-07-14 14:50:00,78.8,71.4,29.97,NNW,339,9.0,14.0,78,0.00,CLR,SKC,0.00,WeatherDisplay:10.37,2013-07-14 12:50:00,
2013-07-14 15:00:00,78.1,71.4,29.97,NW,326,7.0,12.0,80,0.00,CLR,SKC,0.00,WeatherDisplay:10.37,2013-07-14 13:00:00,
2013-07-14 15:10:00,78.3,71.6,29.97,NNW,335,5.0,12.0,80,0.00,CLR,SKC,0.00,WeatherDisplay:10.37,2013-07-14 13:10:00,
2013-07-14 15:20:00,78.2,71.9,29.96,WNW,291,5.0,12.0,81,0.00,CLR,SKC,0.00,WeatherDisplay:10.37,2013-07-14 13:20:00,
2013-07-14 15:30:00,79.0,72.3,29.96,NW,307,5.0,8.0,80,0.00,CLR,SKC,0.00,WeatherDisplay:10.37,2013-07-14 13:30:00,
2013-07-14 15:40:00,78.9,71.8,29.96,NNW,334,6.0,10.0,79,0.00,CLR,SKC,0.00,WeatherDisplay:10.37,2013-07-14 13:40:00,
2013-07-14 15:50:00,79.2,72.1,29.96,NNW,330,5.0,10.0,79,0.00,CLR,SKC,0.00,WeatherDisplay:10.37,2013-07-14 13:50:00,
2013-07-14 16:00:00,79.9,72.4,29.97,WNW,292,6.0,12.0,78,0.00,CLR,SKC,0.00,WeatherDisplay:10.37,2013-07-14 14:00:00,
2013-07-14 16:10:00,78.7,71.7,29.97,WNW,299,8.0,12.0,79,0.00,CLR,SKC,0.00,WeatherDisplay:10.37,2013-07-14 14:10:00,
2013-07-14 16:20:00,78.3,71.6,29.96,WNW,287,3.0,12.0,80,0.00,CLR,SKC,0.00,WeatherDisplay:10.37,2013-07-14 14:20:00,
2013-07-14 16:30:00,78.6,71.9,29.96,NW,325,5.0,9.0,80,0.00,CLR,SKC,0.00,WeatherDisplay:10.37,2013-07-14 14:30:00,
2013-07-14 16:40:00,78.6,71.5,29.96,WNW,299,6.0,11.0,79,0.00,CLR,SKC,0.00,WeatherDisplay:10.37,2013-07-14 14:40:00,
2013-07-14 16:50:00,78.9,71.8,29.96,NW,313,5.0,10.0,79,0.00,CLR,SKC,0.00,WeatherDisplay:10.37,2013-07-14 14:50:00,
2013-07-14 17:00:00,78.5,71.4,29.97,NW,314,6.0,10.0,79,0.00,CLR,SKC,0.00,WeatherDisplay:10.37,2013-07-14 15:00:00,
2013-07-14 17:10:00,78.0,70.6,29.97,NW,306,5.0,8.0,78,0.00,CLR,SKC,0.00,WeatherDisplay:10.37,2013-07-14 15:10:00,
2013-07-14 17:20:00,77.9,70.9,29.97,NW,325,2.0,9.0,79,0.00,CLR,SKC,0.00,WeatherDisplay:10.37,2013-07-14 15:20:00,
2013-07-14 17:30:00,77.9,71.6,29.96,NW,324,5.0,9.0,81,0.00,CLR,SKC,0.00,WeatherDisplay:10.37,2013-07-14 15:30:00,
2013-07-14 17:40:00,78.9,72.2,29.97,NW,320,6.0,10.0,80,0.00,CLR,SKC,0.00,WeatherDisplay:10.37,2013-07-14 15:40:00,
2013-07-14 17:50:00,78.8,71.7,29.96,WNW,299,6.0,10.0,79,0.00,CLR,SKC,0.00,WeatherDisplay:10.37,2013-07-14 15:50:00,
2013-07-14 18:00:00,78.4,71.7,29.96,NW,315,6.0,10.0,80,0.00,CLR,SKC,0.00,WeatherDisplay:10.37,2013-07-14 16:00:00,
2013-07-14 18:10:00,78.0,71.3,29.96,NW,323,5.0,8.0,80,0.00,CLR,SKC,0.00,WeatherDisplay:10.37,2013-07-14 16:10:00,
2013-07-14 18:20:00,78.5,72.2,29.96,NW,306,5.0,9.0,81,0.00,CLR,SKC,0.00,WeatherDisplay:10.37,2013-07-14 16:20:00,
2013-07-14 18:30:00,78.2,71.9,29.97,WNW,300,5.0,8.0,81,0.00,CLR,SKC,0.00,WeatherDisplay:10.37,2013-07-14 16:30:00,
2013-07-14 18:40:00,78.3,72.0,29.97,NW,311,2.0,8.0,81,0.00,CLR,SKC,0.00,WeatherDisplay:10.37,2013-07-14 16:40:00,
2013-07-14 18:50:00,77.6,71.7,29.97,NNW,330,5.0,9.0,82,0.00,CLR,SKC,0.00,WeatherDisplay:10.37,2013-07-14 16:50:00,
2013-07-14 19:00:00,77.8,71.9,29.97,North,351,3.0,9.0,82,0.00,CLR,SKC,0.00,WeatherDisplay:10.37,2013-07-14 17:00:00,
2013-07-14 19:10:00,78.1,72.2,29.97,North,349,5.0,9.0,82,0.00,CLR,SKC,0.00,WeatherDisplay:10.37,2013-07-14 17:10:00,
2013-07-14 19:20:00,77.7,71.4,29.97,NW,316,5.0,9.0,81,0.00,CLR,SKC,0.00,WeatherDisplay:10.37,2013-07-14 17:20:00,
2013-07-14 19:30:00,77.5,71.9,29.96,NNW,327,0.0,5.0,83,0.00,CLR,SKC,0.00,WeatherDisplay:10.37,2013-07-14 17:30:00,
2013-07-14 19:40:00,77.7,71.8,29.96,NW,314,2.0,5.0,82,0.00,CLR,SKC,0.00,WeatherDisplay:10.37,2013-07-14 17:40:00,
2013-07-14 19:50:00,77.5,70.1,29.96,NW,311,5.0,9.0,78,0.00,CLR,SKC,0.00,WeatherDisplay:10.37,2013-07-14 17:50:00,
2013-07-14 20:00:00,77.6,68.6,29.95,NW,321,0.0,9.0,74,0.00,CLR,SKC,0.00,WeatherDisplay:10.37,2013-07-14 18:00:00,
2013-07-14 20:10:00,77.9,68.1,29.95,North,5,0.0,6.0,72,0.00,CLR,SKC,0.00,WeatherDisplay:10.37,2013-07-14 18:10:00,
2013-07-14 20:20:00,77.9,68.1,29.95,North,5,0.0,1.0,72,0.00,CLR,SKC,0.00,WeatherDisplay:10.37,2013-07-14 18:20:00,
2013-07-14 20:30:00,77.9,69.3,29.95,North,10,0.0,1.0,75,0.00,CLR,SKC,0.00,WeatherDisplay:10.37,2013-07-14 18:30:00,
2013-07-14 20:40:00,77.9,69.3,29.94,NE,53,0.0,1.0,75,0.00,CLR,SKC,0.00,WeatherDisplay:10.37,2013-07-14 18:40:00,
2013-07-14 20:50:00,77.5,69.4,29.95,NE,53,0.0,0.0,76,0.00,CLR,SKC,0.00,WeatherDisplay:10.37,2013-07-14 18:50:00,
2013-07-14 21:00:00,77.1,68.6,29.95,SE,137,0.0,2.0,75,0.00,CLR,SKC,0.00,WeatherDisplay:10.37,2013-07-14 19:00:00,
2013-07-14 21:10:00,76.6,68.4,29.95,SE,138,0.0,2.0,76,0.00,CLR,SKC,0.00,WeatherDisplay:10.37,2013-07-14 19:10:00,
2013-07-14 21:20:00,75.5,67.8,29.96,SW,224,2.0,5.0,77,0.00,CLR,SKC,0.00,WeatherDisplay:10.37,2013-07-14 19:20:00,
2013-07-14 21:30:00,74.9,68.0,29.96,WSW,238,0.0,2.0,79,0.00,CLR,SKC,0.00,WeatherDisplay:10.37,2013-07-14 19:30:00,
2013-07-14 21:40:00,74.7,67.8,29.96,WSW,238,0.0,0.0,79,0.00,CLR,SKC,0.00,WeatherDisplay:10.37,2013-07-14 19:40:00,
2013-07-14 21:50:00,74.6,67.7,29.97,WSW,238,0.0,0.0,79,0.00,CLR,SKC,0.00,WeatherDisplay:10.37,2013-07-14 19:50:00,
2013-07-14 22:00:00,74.6,67.7,29.97,WSW,238,0.0,0.0,79,0.00,CLR,SKC,0.00,WeatherDisplay:10.37,2013-07-14 20:00:00,
2013-07-14 22:10:00,74.3,67.4,29.97,WSW,238,0.0,3.0,79,0.00,CLR,SKC,0.00,WeatherDisplay:10.37,2013-07-14 20:10:00,
2013-07-14 22:20:00,74.1,67.5,29.97,WSW,238,0.0,0.0,80,0.00,CLR,SKC,0.00,WeatherDisplay:10.37,2013-07-14 20:20:00,
2013-07-14 22:30:00,73.9,67.4,29.97,WSW,238,0.0,2.0,80,0.00,CLR,SKC,0.00,WeatherDisplay:10.37,2013-07-14 20:30:00,
2013-07-14 22:40:00,73.5,67.3,29.97,SSW,194,0.0,4.0,81,0.00,CLR,SKC,0.00,WeatherDisplay:10.37,2013-07-14 20:40:00,
2013-07-14 22:50:00,73.2,67.4,29.97,South,189,0.0,2.0,82,0.00,CLR,SKC,0.00,WeatherDisplay:10.37,2013-07-14 20:50:00,
2013-07-14 23:00:00,73.0,67.2,29.97,South,189,0.0,3.0,82,0.00,CLR,SKC,0.00,WeatherDisplay:10.37,2013-07-14 21:00:00,
2013-07-14 23:10:00,72.9,67.1,29.97,South,189,0.0,0.0,82,0.00,CLR,SKC,0.00,WeatherDisplay:10.37,2013-07-14 21:10:00,
2013-07-14 23:20:00,72.9,66.7,29.97,South,189,0.0,0.0,81,0.00,CLR,SKC,0.00,WeatherDisplay:10.37,2013-07-14 21:20:00,
2013-07-14 23:30:00,72.8,66.6,29.97,South,189,0.0,1.0,81,0.00,CLR,SKC,0.00,WeatherDisplay:10.37,2013-07-14 21:30:00,
2013-07-14 23:40:00,72.7,66.5,29.97,South,189,0.0,2.0,81,0.00,CLR,SKC,0.00,WeatherDisplay:10.37,2013-07-14 21:40:00,
2013-07-14 23:50:00,72.6,66.4,29.98,South,189,0.0,0.0,81,0.00,CLR,SKC,0.00,WeatherDisplay:10.37,2013-07-14 21:50:00,